Terminal Aerodrome Forecast
Issued by NWS

Current Version | Previous Version | Text Only | Print | Product List | Glossary On
Versions: 1 2 3 4 5 6 7 8 9 10 11 12 13 14 15 16 17 18 19 20 21 22 23 24 25 26 27 28 29 30 31 32 33 34 35 36 37 38 39 40 41 42 43 44 45 46 47 48 49 50
338
FTAK31 PANC 081140
TAFADQ
TAF
PADQ 081140Z 0812/0912 30008KT P6SM -SHRASN BKN015 OVC025
     FM081400 01015KT 5SM -SHSNRA BKN025
     FM090000 35014G22KT 3SM -SHSN BKN015 OVC022
     FM090800 02010KT 3SM -RA BR BKN007=

USA.gov is the U.S. government's official web portal to all federal, state and local government web resources and services.